createdAt,value
2018-07-23T00:00:09.797Z,17.28
2018-07-23T00:01:09.782Z,17.32
2018-07-23T00:02:09.760Z,17.28
2018-07-23T00:03:09.734Z,17.35
2018-07-23T00:04:09.714Z,17.29
2018-07-23T00:05:09.689Z,17.26
2018-07-23T00:06:09.649Z,17.30
2018-07-23T00:07:09.643Z,17.30
2018-07-23T00:08:09.622Z,17.29
2018-07-23T00:09:09.598Z,17.35
2018-07-23T00:10:09.576Z,17.30
2018-07-23T00:11:09.554Z,17.18
2018-07-23T00:12:09.532Z,17.30
2018-07-23T00:13:09.513Z,17.28
2018-07-23T00:14:09.492Z,17.23
2018-07-23T00:15:09.462Z,17.13
2018-07-23T00:16:09.437Z,17.20
2018-07-23T00:17:09.416Z,17.29
2018-07-23T00:18:09.397Z,17.29
2018-07-23T00:19:09.348Z,17.29
2018-07-23T00:20:09.442Z,17.20
2018-07-23T00:21:09.326Z,17.28
2018-07-23T00:22:09.301Z,17.11
2018-07-23T00:23:09.284Z,17.26
2018-07-23T00:24:09.318Z,17.29
2018-07-23T00:25:09.211Z,17.23
2018-07-23T00:26:09.211Z,17.15
2018-07-23T00:27:09.193Z,17.28
2018-07-23T00:28:09.167Z,17.17
2018-07-23T00:29:09.148Z,17.20
2018-07-23T00:30:09.116Z,17.17
2018-07-23T00:31:09.094Z,17.26
2018-07-23T00:32:09.067Z,17.29
2018-07-23T00:33:09.048Z,17.18
2018-07-23T00:34:09.007Z,17.15
2018-07-23T00:35:08.979Z,17.18
2018-07-23T00:36:08.977Z,17.11
2018-07-23T00:37:08.961Z,17.17
2018-07-23T00:38:08.934Z,17.13
2018-07-23T00:39:08.910Z,17.10
2018-07-23T00:40:08.903Z,17.06
2018-07-23T00:41:08.868Z,17.06
2018-07-23T00:42:08.843Z,17.04
2018-07-23T00:43:08.798Z,17.03
2018-07-23T00:44:08.801Z,17.04
2018-07-23T00:45:08.770Z,17.08
2018-07-23T00:46:08.744Z,17.03
2018-07-23T00:47:08.728Z,17.04
2018-07-23T00:48:08.708Z,17.03
2018-07-23T00:49:08.683Z,17.04
2018-07-23T00:50:08.634Z,17.11
2018-07-23T00:51:08.637Z,17.04
2018-07-23T00:52:08.589Z,17.03
2018-07-23T00:53:08.586Z,17.07
2018-07-23T00:54:08.563Z,17.08
2018-07-23T00:55:08.548Z,16.98
2018-07-23T00:56:08.517Z,16.96
2018-07-23T00:57:08.491Z,16.99
2018-07-23T00:58:08.472Z,16.96
2018-07-23T00:59:08.449Z,16.98
2018-07-23T01:00:08.429Z,17.00
2018-07-23T01:01:08.410Z,16.98
2018-07-23T01:02:08.382Z,17.04
2018-07-23T01:03:08.360Z,16.90
2018-07-23T01:04:08.339Z,16.90
2018-07-23T01:05:08.311Z,17.03
2018-07-23T01:06:08.282Z,16.90
2018-07-23T01:07:08.270Z,16.90
2018-07-23T01:08:08.225Z,17.00
2018-07-23T01:09:08.221Z,16.96
2018-07-23T01:10:08.200Z,16.98
2018-07-23T01:11:08.174Z,16.98
2018-07-23T01:12:08.151Z,16.90
2018-07-23T01:13:08.129Z,16.98
2018-07-23T01:14:08.106Z,16.98
2018-07-23T01:15:08.090Z,17.07
2018-07-23T01:16:08.057Z,16.99
2018-07-23T01:17:08.016Z,16.96
2018-07-23T01:18:08.012Z,16.96
2018-07-23T01:19:07.988Z,16.99
2018-07-23T01:20:07.969Z,16.98
2018-07-23T01:21:07.927Z,16.96
2018-07-23T01:22:07.902Z,17.00
2018-07-23T01:23:07.893Z,16.98
2018-07-23T01:24:07.869Z,16.99
2018-07-23T01:25:07.832Z,16.99
2018-07-23T01:26:07.825Z,16.99
2018-07-23T01:27:07.807Z,16.99
2018-07-23T01:28:07.781Z,16.99
2018-07-23T01:29:07.755Z,17.03
2018-07-23T01:30:07.736Z,16.96
2018-07-23T01:31:07.692Z,17.07
2018-07-23T01:32:07.688Z,17.07
2018-07-23T01:33:07.666Z,17.13
2018-07-23T01:34:07.626Z,17.06
2018-07-23T01:35:08.142Z,17.06
2018-07-23T01:36:08.326Z,17.06
2018-07-23T01:37:07.574Z,17.07
2018-07-23T01:38:08.387Z,17.04
2018-07-23T01:39:08.064Z,17.08
2018-07-23T01:40:07.503Z,17.03
2018-07-23T01:41:07.476Z,16.99
2018-07-23T01:42:08.191Z,17.00
2018-07-23T01:43:07.865Z,17.04
2018-07-23T01:44:08.143Z,16.99
2018-07-23T01:45:07.818Z,17.00
2018-07-23T01:46:07.365Z,16.93
2018-07-23T01:47:10.373Z,17.00
2018-07-23T01:48:07.319Z,16.99
2018-07-23T01:49:07.293Z,16.99
2018-07-23T01:50:07.279Z,17.03
2018-07-23T01:51:07.249Z,16.98
2018-07-23T01:52:07.214Z,16.95
2018-07-23T01:53:07.201Z,16.93
2018-07-23T01:54:07.183Z,16.95
2018-07-23T01:55:08.196Z,16.88
2018-07-23T01:56:08.990Z,16.93
2018-07-23T01:57:07.652Z,16.90
2018-07-23T01:58:07.589Z,16.96
2018-07-23T01:59:09.019Z,16.89
2018-07-23T02:00:08.088Z,16.88
2018-07-23T02:02:07.626Z,16.95
2018-07-23T02:04:08.587Z,16.86
2018-07-23T02:05:06.931Z,16.88
2018-07-23T02:06:06.885Z,16.80
2018-07-23T02:07:06.877Z,16.93
2018-07-23T02:09:08.709Z,16.90
2018-07-23T02:10:07.560Z,17.00
2018-07-23T02:11:07.927Z,16.95
2018-07-23T02:12:07.701Z,16.95
2018-07-23T02:13:06.742Z,16.92
2018-07-23T02:14:07.453Z,16.93
2018-07-23T02:15:07.477Z,16.95
2018-07-23T02:16:08.088Z,16.92
2018-07-23T02:17:07.184Z,16.90
2018-07-23T02:18:06.651Z,16.89
2018-07-23T02:19:06.592Z,16.95
2018-07-23T02:20:06.581Z,16.89
2018-07-23T02:21:06.555Z,16.93
2018-07-23T02:22:06.536Z,16.95
2018-07-23T02:23:06.510Z,16.90
2018-07-23T02:24:06.492Z,16.96
2018-07-23T02:25:06.474Z,16.90
2018-07-23T02:26:06.432Z,16.93
2018-07-23T02:27:06.421Z,16.93
2018-07-23T02:28:06.380Z,16.85
2018-07-23T02:29:06.372Z,16.78
2018-07-23T02:30:06.353Z,16.81
2018-07-23T02:31:06.332Z,16.75
2018-07-23T02:32:06.311Z,16.86
2018-07-23T02:33:06.281Z,16.83
2018-07-23T02:34:06.264Z,16.77
2018-07-23T02:35:06.245Z,16.77
2018-07-23T02:36:06.211Z,16.78
2018-07-23T02:37:06.187Z,16.75
2018-07-23T02:38:06.168Z,16.75
2018-07-23T02:39:06.132Z,16.83
2018-07-23T02:40:06.117Z,16.75
2018-07-23T02:41:06.096Z,16.75
2018-07-23T02:42:06.054Z,16.75
2018-07-23T02:43:06.031Z,16.71
2018-07-23T02:44:06.027Z,16.70
2018-07-23T02:45:06.008Z,16.75
2018-07-23T02:46:05.967Z,16.68
2018-07-23T02:47:05.957Z,16.67
2018-07-23T02:48:05.913Z,16.73
2018-07-23T02:49:05.890Z,16.75
2018-07-23T02:50:05.887Z,16.75
2018-07-23T02:51:05.865Z,16.63
2018-07-23T02:52:05.850Z,16.77
2018-07-23T02:53:05.815Z,16.71
2018-07-23T02:54:05.775Z,16.73
2018-07-23T02:55:05.757Z,16.74
2018-07-23T02:56:05.745Z,16.63
2018-07-23T02:57:05.749Z,16.74
2018-07-23T02:58:05.707Z,16.63
2018-07-23T02:59:05.680Z,16.63
2018-07-23T03:00:05.649Z,16.65
2018-07-23T03:01:05.629Z,16.62
2018-07-23T03:02:05.613Z,16.70
2018-07-23T03:03:05.583Z,16.62
2018-07-23T03:04:05.560Z,16.67
2018-07-23T03:05:05.540Z,16.65
2018-07-23T03:06:05.517Z,16.68
2018-07-23T03:07:05.491Z,16.71
2018-07-23T03:08:05.467Z,16.75
2018-07-23T03:09:05.439Z,16.70
2018-07-23T03:10:05.422Z,16.68
2018-07-23T03:11:05.403Z,16.71
2018-07-23T03:12:05.377Z,16.73
2018-07-23T03:13:05.397Z,16.68
2018-07-23T03:14:05.329Z,16.75
2018-07-23T03:15:05.288Z,16.75
2018-07-23T03:16:05.283Z,16.78
2018-07-23T03:17:05.260Z,16.80
2018-07-23T03:18:05.241Z,16.81
2018-07-23T03:19:05.212Z,16.85
2018-07-23T03:20:05.184Z,16.80
2018-07-23T03:21:05.160Z,16.81
2018-07-23T03:22:05.128Z,16.78
2018-07-23T03:23:05.119Z,16.75
2018-07-23T03:24:05.112Z,16.81
2018-07-23T03:25:05.073Z,16.85
2018-07-23T03:26:05.051Z,16.83
2018-07-23T03:27:05.030Z,16.88
2018-07-23T03:28:05.006Z,16.83
2018-07-23T03:29:04.963Z,16.80
2018-07-23T03:30:04.937Z,16.86
2018-07-23T03:31:04.918Z,16.83
2018-07-23T03:32:04.915Z,16.92
2018-07-23T03:33:04.889Z,16.88
2018-07-23T03:34:04.865Z,16.81
2018-07-23T03:35:04.837Z,16.85
2018-07-23T03:36:04.812Z,16.88
2018-07-23T03:37:04.795Z,16.89
2018-07-23T03:38:04.772Z,16.80
2018-07-23T03:39:04.750Z,16.80
2018-07-23T03:40:04.719Z,16.78
2018-07-23T03:41:04.680Z,16.77
2018-07-23T03:42:04.678Z,16.83
2018-07-23T03:43:04.652Z,16.85
2018-07-23T03:44:04.629Z,16.80
2018-07-23T03:45:04.609Z,16.80
2018-07-23T03:46:04.593Z,16.78
2018-07-23T03:47:04.542Z,16.70
2018-07-23T03:48:04.537Z,16.65
2018-07-23T03:49:04.497Z,16.62
2018-07-23T03:50:04.498Z,16.63
2018-07-23T03:51:04.469Z,16.63
2018-07-23T03:52:04.445Z,16.67
2018-07-23T03:53:04.409Z,16.55
2018-07-23T03:54:04.398Z,16.55
2018-07-23T03:55:04.355Z,16.50
2018-07-23T03:56:04.350Z,16.53
2018-07-23T03:57:04.331Z,16.55
2018-07-23T03:59:48.011Z,16.44
2018-07-23T04:00:47.992Z,16.48
2018-07-23T04:01:47.945Z,16.49
2018-07-23T04:02:47.939Z,16.48
2018-07-23T04:03:47.919Z,16.50
2018-07-23T04:04:47.895Z,16.49
2018-07-23T04:05:47.869Z,16.42
2018-07-23T04:06:47.844Z,16.48
2018-07-23T04:07:47.807Z,16.49
2018-07-23T04:08:47.797Z,16.55
2018-07-23T04:09:47.782Z,16.53
2018-07-23T04:10:47.793Z,16.56
2018-07-23T04:11:47.730Z,16.52
2018-07-23T04:12:47.792Z,16.53
2018-07-23T04:13:47.683Z,16.52
2018-07-23T04:14:47.653Z,16.40
2018-07-23T04:15:47.629Z,16.44
2018-07-23T04:16:47.612Z,16.42
2018-07-23T04:17:47.590Z,16.44
2018-07-23T04:18:47.559Z,16.44
2018-07-23T04:19:47.540Z,16.38
2018-07-23T04:20:47.515Z,16.33
2018-07-23T04:21:47.474Z,16.34
2018-07-23T04:22:47.470Z,16.44
2018-07-23T04:23:47.449Z,16.34
2018-07-23T04:24:47.433Z,16.34
2018-07-23T04:25:47.378Z,16.35
2018-07-23T04:26:47.374Z,16.31
2018-07-23T04:27:47.335Z,16.31
2018-07-23T04:28:47.311Z,16.34
2018-07-23T04:29:47.310Z,16.38
2018-07-23T04:30:47.286Z,16.37
2018-07-23T04:31:47.259Z,16.33
2018-07-23T04:32:47.239Z,16.44
2018-07-23T04:33:47.218Z,16.42
2018-07-23T04:34:47.187Z,16.35
2018-07-23T04:35:47.160Z,16.31
2018-07-23T04:36:47.121Z,16.34
2018-07-23T04:37:47.168Z,16.35
2018-07-23T04:38:47.074Z,16.38
2018-07-23T04:39:47.074Z,16.34
2018-07-23T04:40:47.045Z,16.34
2018-07-23T04:41:47.000Z,16.23
2018-07-23T04:42:46.997Z,16.25
2018-07-23T04:43:46.953Z,16.27
2018-07-23T04:44:47.619Z,16.22
2018-07-23T04:45:46.910Z,16.30
2018-07-23T04:46:47.107Z,16.22
2018-07-23T04:47:46.880Z,16.23
2018-07-23T04:48:46.853Z,16.15
2018-07-23T04:49:47.363Z,16.20
2018-07-23T04:50:46.793Z,16.23
2018-07-23T04:51:47.357Z,16.18
2018-07-23T04:52:46.752Z,16.15
2018-07-23T04:53:46.741Z,16.16
2018-07-23T04:54:46.710Z,16.33
2018-07-23T04:55:46.691Z,16.15
2018-07-23T04:56:47.272Z,16.20
2018-07-23T04:57:46.644Z,16.23
2018-07-23T04:58:46.621Z,16.26
2018-07-23T04:59:47.094Z,16.31
2018-07-23T05:00:47.516Z,16.23
2018-07-23T05:01:46.555Z,16.22
2018-07-23T05:02:46.931Z,16.25
2018-07-23T05:03:46.701Z,16.20
2018-07-23T05:04:46.475Z,16.25
2018-07-23T05:05:46.461Z,16.15
2018-07-23T05:06:46.412Z,16.22
2018-07-23T05:07:46.722Z,16.18
2018-07-23T05:08:46.453Z,16.11
2018-07-23T05:09:46.358Z,16.09
2018-07-23T05:10:46.329Z,16.23
2018-07-23T05:11:46.296Z,16.18
2018-07-23T05:12:46.288Z,16.14
2018-07-23T05:13:46.273Z,16.18
2018-07-23T05:14:46.241Z,16.04
2018-07-23T05:15:46.218Z,16.12
2018-07-23T05:16:46.197Z,16.16
2018-07-23T05:17:46.166Z,16.14
2018-07-23T05:18:46.148Z,16.16
2018-07-23T05:19:46.125Z,16.06
2018-07-23T05:20:46.104Z,16.15
2018-07-23T05:21:46.279Z,16.12
2018-07-23T05:22:46.053Z,16.07
2018-07-23T05:23:46.575Z,16.09
2018-07-23T05:24:46.014Z,16.06
2018-07-23T05:25:45.990Z,16.04
2018-07-23T05:26:45.941Z,16.12
2018-07-23T05:27:45.937Z,16.15
2018-07-23T05:28:45.908Z,16.11
2018-07-23T05:29:45.889Z,16.15
2018-07-23T05:30:45.860Z,16.09
2018-07-23T05:31:45.835Z,16.04
2018-07-23T05:32:45.793Z,16.12
2018-07-23T05:33:45.792Z,16.07
2018-07-23T05:34:45.763Z,16.07
2018-07-23T05:35:45.744Z,16.12
2018-07-23T05:36:45.717Z,16.15
2018-07-23T05:37:45.697Z,16.07
2018-07-23T05:38:45.680Z,16.15
2018-07-23T05:39:45.650Z,16.16
2018-07-23T05:40:45.626Z,16.12
2018-07-23T05:41:45.603Z,16.14
2018-07-23T05:42:45.579Z,16.12
2018-07-23T05:43:45.556Z,16.07
2018-07-23T05:44:45.533Z,16.09
2018-07-23T05:45:45.488Z,16.06
2018-07-23T05:46:45.481Z,16.04
2018-07-23T05:47:45.464Z,16.06
2018-07-23T05:48:45.438Z,16.14
2018-07-23T05:49:45.418Z,16.12
2018-07-23T05:50:45.390Z,16.07
2018-07-23T05:51:45.367Z,16.07
2018-07-23T05:52:45.340Z,16.04
2018-07-23T05:53:45.327Z,16.04
2018-07-23T05:54:45.292Z,16.04
2018-07-23T05:55:45.272Z,16.06
2018-07-23T05:56:45.233Z,16.04
2018-07-23T05:57:45.243Z,16.07
2018-07-23T05:58:45.207Z,16.09
2018-07-23T05:59:45.322Z,16.12
2018-07-23T06:00:45.151Z,16.07
2018-07-23T06:01:45.129Z,16.14
2018-07-23T06:02:45.106Z,16.15
2018-07-23T06:03:45.142Z,16.11
2018-07-23T06:04:45.057Z,16.12
2018-07-23T06:05:45.034Z,16.14
2018-07-23T06:06:45.114Z,16.01
2018-07-23T06:07:44.962Z,16.16
2018-07-23T06:08:44.960Z,16.20
2018-07-23T06:09:44.922Z,16.18
2018-07-23T06:10:44.890Z,16.23
2018-07-23T06:11:44.867Z,16.30
2018-07-23T06:12:44.847Z,16.18
2018-07-23T06:13:44.820Z,16.18
2018-07-23T06:14:44.816Z,16.23
2018-07-23T06:15:44.799Z,16.20
2018-07-23T06:16:44.771Z,16.20
2018-07-23T06:17:44.745Z,16.23
2018-07-23T06:18:44.725Z,16.27
2018-07-23T06:19:44.708Z,16.31
2018-07-23T06:20:44.672Z,16.27
2018-07-23T06:21:44.633Z,16.25
2018-07-23T06:22:44.643Z,16.25
2018-07-23T06:23:44.590Z,16.14
2018-07-23T06:24:44.579Z,16.18
2018-07-23T06:25:44.596Z,16.20
2018-07-23T06:26:44.535Z,16.15
2018-07-23T06:27:44.509Z,16.23
2018-07-23T06:28:44.488Z,16.04
2018-07-23T06:29:44.467Z,16.11
2018-07-23T06:30:44.441Z,16.16
2018-07-23T06:31:44.413Z,16.07
2018-07-23T06:32:44.393Z,16.06
2018-07-23T06:33:44.394Z,16.20
2018-07-23T06:34:44.343Z,16.07
2018-07-23T06:35:44.323Z,16.16
2018-07-23T06:36:44.293Z,16.07
2018-07-23T06:37:44.274Z,16.11
2018-07-23T06:38:44.252Z,16.15
2018-07-23T06:39:44.219Z,16.07
2018-07-23T06:40:44.202Z,16.09
2018-07-23T06:41:44.177Z,16.04
2018-07-23T06:42:44.150Z,16.16
2018-07-23T06:43:44.128Z,16.11
2018-07-23T06:44:44.105Z,16.11
2018-07-23T06:45:44.078Z,16.18
2018-07-23T06:46:44.123Z,16.12
2018-07-23T06:47:44.033Z,16.12
2018-07-23T06:48:44.011Z,16.11
2018-07-23T06:49:43.985Z,16.12
2018-07-23T06:50:43.941Z,16.11
2018-07-23T06:51:43.922Z,16.12
2018-07-23T06:52:43.892Z,16.12
2018-07-23T06:53:43.874Z,16.09
2018-07-23T06:54:44.051Z,16.14
2018-07-23T06:55:43.822Z,16.18
2018-07-23T06:56:43.883Z,16.18
2018-07-23T06:57:43.774Z,16.12
2018-07-23T06:58:43.754Z,16.11
2018-07-23T06:59:43.726Z,16.16
2018-07-23T07:00:43.783Z,16.03
2018-07-23T07:01:43.700Z,16.18
2018-07-23T07:02:43.656Z,16.07
2018-07-23T07:03:43.655Z,16.11
2018-07-23T07:04:43.629Z,16.11
2018-07-23T07:05:43.609Z,16.14
2018-07-23T07:06:43.583Z,16.07
2018-07-23T07:07:43.558Z,16.09
2018-07-23T07:09:16.739Z,16.09
2018-07-23T07:09:43.508Z,16.14
2018-07-23T07:10:43.489Z,16.14
2018-07-23T07:11:43.462Z,16.18
2018-07-23T07:12:43.419Z,16.09
2018-07-23T07:13:43.393Z,16.11
2018-07-23T07:14:43.390Z,16.12
2018-07-23T07:15:43.366Z,16.07
2018-07-23T07:16:43.520Z,16.06
2018-07-23T07:17:43.323Z,16.01
2018-07-23T07:18:43.297Z,16.16
2018-07-23T07:19:43.273Z,16.14
2018-07-23T07:20:43.244Z,16.06
2018-07-23T07:21:43.222Z,16.25
2018-07-23T07:22:43.202Z,16.14
2018-07-23T07:23:43.179Z,16.22
2018-07-23T07:24:43.133Z,16.11
2018-07-23T07:25:43.113Z,16.06
2018-07-23T07:26:43.101Z,16.15
2018-07-23T07:27:43.081Z,16.18
2018-07-23T07:28:43.035Z,16.16
2018-07-23T07:29:43.032Z,16.07
2018-07-23T07:30:43.013Z,16.15
2018-07-23T07:31:42.991Z,16.18
2018-07-23T07:32:42.956Z,16.14
2018-07-23T07:33:42.938Z,16.12
2018-07-23T07:34:42.933Z,16.20
2018-07-23T07:35:42.886Z,16.18
2018-07-23T07:36:42.862Z,16.16
2018-07-23T07:37:42.823Z,16.18
2018-07-23T07:38:42.815Z,16.14
2018-07-23T07:39:42.792Z,16.14
2018-07-23T07:40:42.772Z,16.01
2018-07-23T07:41:42.750Z,16.15
2018-07-23T07:42:42.847Z,16.09
2018-07-23T07:43:42.700Z,16.15
2018-07-23T07:44:42.680Z,16.16
2018-07-23T07:45:42.657Z,16.12
2018-07-23T07:46:42.634Z,16.22
2018-07-23T07:47:42.605Z,16.15
2018-07-23T07:48:42.566Z,16.18
2018-07-23T07:49:42.554Z,16.16
2018-07-23T07:50:42.531Z,16.09
2018-07-23T07:51:42.514Z,16.07
2018-07-23T07:52:42.471Z,16.09
2018-07-23T07:53:42.461Z,16.09
2018-07-23T07:54:42.442Z,16.14
2018-07-23T07:55:42.421Z,16.04
2018-07-23T07:56:42.395Z,16.16
2018-07-23T07:57:42.376Z,16.09
2018-07-23T07:58:42.349Z,16.09
2018-07-23T07:59:42.318Z,16.15
2018-07-23T08:00:42.316Z,16.06
2018-07-23T08:01:42.277Z,16.09
2018-07-23T08:02:42.250Z,16.03
2018-07-23T08:03:42.210Z,16.09
2018-07-23T08:04:42.206Z,16.12
2018-07-23T08:05:42.160Z,16.01
2018-07-23T08:06:42.152Z,15.99
2018-07-23T08:07:42.111Z,16.07
2018-07-23T08:08:42.109Z,16.04
2018-07-23T08:09:42.064Z,16.09
2018-07-23T08:10:42.060Z,16.11
2018-07-23T08:11:42.038Z,16.12
2018-07-23T08:12:42.014Z,16.09
2018-07-23T08:13:41.989Z,16.03
2018-07-23T08:14:41.964Z,15.99
2018-07-23T08:15:41.944Z,15.96
2018-07-23T08:16:41.900Z,15.97
2018-07-23T08:17:41.895Z,15.94
2018-07-23T08:18:41.877Z,15.99
2018-07-23T08:19:41.828Z,16.00
2018-07-23T08:20:41.827Z,15.94
2018-07-23T08:21:41.797Z,15.94
2018-07-23T08:22:41.775Z,15.94
2018-07-23T08:23:41.753Z,15.93
2018-07-23T08:24:41.730Z,15.94
2018-07-23T08:25:41.701Z,15.93
2018-07-23T08:26:41.679Z,15.89
2018-07-23T08:27:42.240Z,15.89
2018-07-23T08:28:41.630Z,15.89
2018-07-23T08:29:41.615Z,15.93
2018-07-23T08:30:41.582Z,15.85
2018-07-23T08:31:41.662Z,15.88
2018-07-23T08:32:41.535Z,15.86
2018-07-23T08:33:41.514Z,15.86
2018-07-23T08:34:41.493Z,15.84
2018-07-23T08:35:41.477Z,15.82
2018-07-23T08:36:41.443Z,15.82
2018-07-23T08:37:41.417Z,15.85
2018-07-23T08:38:41.480Z,15.88
2018-07-23T08:39:41.366Z,15.81
2018-07-23T08:40:41.340Z,15.82
2018-07-23T08:41:41.328Z,15.85
2018-07-23T08:42:41.300Z,15.79
2018-07-23T08:43:41.273Z,15.82
2018-07-23T08:44:41.238Z,15.84
2018-07-23T08:45:41.224Z,15.84
2018-07-23T08:46:41.210Z,15.85
2018-07-23T08:47:41.181Z,15.82
2018-07-23T08:48:41.172Z,15.82
2018-07-23T08:49:41.134Z,15.85
2018-07-23T08:50:41.107Z,15.82
2018-07-23T08:51:41.062Z,15.84
2018-07-23T08:52:41.061Z,15.86
2018-07-23T08:53:41.036Z,15.84
2018-07-23T08:54:41.007Z,15.82
2018-07-23T08:55:40.986Z,15.76
2018-07-23T08:56:40.969Z,15.81
2018-07-23T08:57:40.943Z,15.75
2018-07-23T08:58:40.916Z,15.72
2018-07-23T08:59:40.889Z,15.72
2018-07-23T09:00:40.866Z,15.74
2018-07-23T09:01:40.845Z,15.67
2018-07-23T09:02:40.814Z,15.76
2018-07-23T09:03:40.792Z,15.78
2018-07-23T09:04:40.770Z,15.72
2018-07-23T09:05:40.734Z,15.79
2018-07-23T09:06:40.730Z,15.85
2018-07-23T09:07:40.678Z,15.86
2018-07-23T09:08:40.817Z,15.86
2018-07-23T09:09:40.656Z,15.78
2018-07-23T09:11:13.839Z,15.82
2018-07-23T09:11:40.602Z,15.82
2018-07-23T09:12:40.583Z,15.84
2018-07-23T09:13:40.562Z,15.76
2018-07-23T09:14:40.511Z,15.75
2018-07-23T09:15:40.513Z,15.81
2018-07-23T09:16:40.487Z,15.81
2018-07-23T09:17:40.462Z,15.74
2018-07-23T09:18:40.448Z,15.76
2018-07-23T09:19:40.416Z,15.76
2018-07-23T09:20:40.388Z,15.70
2018-07-23T09:21:40.373Z,15.75
2018-07-23T09:22:40.338Z,15.70
2018-07-23T09:23:40.304Z,15.70
2018-07-23T09:24:40.278Z,15.75
2018-07-23T09:25:40.271Z,15.76
2018-07-23T09:26:40.251Z,15.75
2018-07-23T09:27:40.202Z,15.76
2018-07-23T09:28:40.186Z,15.70
2018-07-23T09:29:40.174Z,15.72
2018-07-23T09:30:40.151Z,15.74
2018-07-23T09:31:40.128Z,15.74
2018-07-23T09:32:40.097Z,15.74
2018-07-23T09:33:40.082Z,15.78
2018-07-23T09:34:40.057Z,15.68
2018-07-23T09:35:40.031Z,15.75
2018-07-23T09:36:40.007Z,15.72
2018-07-23T09:37:39.986Z,15.75
2018-07-23T09:38:39.962Z,15.70
2018-07-23T09:39:39.943Z,15.75
2018-07-23T09:40:39.920Z,15.81
2018-07-23T09:41:39.890Z,15.82
2018-07-23T09:42:39.859Z,15.84
2018-07-23T09:43:39.835Z,15.85
2018-07-23T09:44:39.815Z,15.84
2018-07-23T09:45:39.801Z,15.81
2018-07-23T09:46:39.770Z,15.86
2018-07-23T09:47:39.743Z,15.93
2018-07-23T09:48:39.722Z,15.94
2018-07-23T09:49:39.707Z,16.00
2018-07-23T09:50:39.671Z,15.97
2018-07-23T09:51:39.651Z,15.96
2018-07-23T09:52:39.655Z,16.00
2018-07-23T09:53:39.589Z,16.06
2018-07-23T09:54:39.579Z,16.00
2018-07-23T09:55:39.529Z,16.04
2018-07-23T09:56:39.530Z,16.03
2018-07-23T09:57:39.508Z,16.04
2018-07-23T09:58:39.484Z,16.03
2018-07-23T09:59:39.463Z,15.97
2018-07-23T10:00:39.431Z,16.01
2018-07-23T10:01:39.414Z,16.06
2018-07-23T10:02:39.385Z,16.04
2018-07-23T10:03:39.463Z,16.11
2018-07-23T10:04:39.344Z,16.14
2018-07-23T10:05:39.315Z,16.04
2018-07-23T10:06:39.294Z,16.09
2018-07-23T10:07:39.272Z,16.00
2018-07-23T10:08:39.250Z,16.03
2018-07-23T10:09:39.229Z,16.00
2018-07-23T10:10:39.200Z,16.00
2018-07-23T10:11:39.177Z,16.06
2018-07-23T10:12:39.155Z,16.04
2018-07-23T10:13:39.112Z,16.07
2018-07-23T10:14:39.104Z,16.09
2018-07-23T10:15:39.060Z,16.14
2018-07-23T10:16:39.062Z,16.07
2018-07-23T10:17:39.016Z,16.12
2018-07-23T10:18:39.005Z,16.11
2018-07-23T10:19:38.966Z,16.04
2018-07-23T10:20:38.973Z,16.03
2018-07-23T10:21:38.939Z,16.16
2018-07-23T10:22:38.912Z,16.16
2018-07-23T10:23:38.896Z,16.27
2018-07-23T10:24:38.869Z,16.20
2018-07-23T10:25:38.843Z,16.26
2018-07-23T10:26:38.825Z,16.35
2018-07-23T10:27:38.797Z,16.37
2018-07-23T10:28:38.757Z,16.42
2018-07-23T10:29:38.755Z,16.41
2018-07-23T10:30:38.732Z,16.49
2018-07-23T10:31:38.707Z,16.48
2018-07-23T10:32:38.684Z,16.53
2018-07-23T10:33:38.663Z,16.50
2018-07-23T10:34:38.640Z,16.62
2018-07-23T10:35:38.618Z,16.56
2018-07-23T10:36:38.570Z,16.52
2018-07-23T10:37:40.430Z,16.55
2018-07-23T10:38:38.978Z,16.50
2018-07-23T10:39:39.045Z,16.48
2018-07-23T10:40:38.937Z,16.45
2018-07-23T10:41:39.517Z,16.55
2018-07-23T10:42:38.456Z,16.50
2018-07-23T10:43:38.427Z,16.70
2018-07-23T10:44:38.403Z,16.75
2018-07-23T10:45:38.381Z,16.80
2018-07-23T10:47:11.568Z,16.81
2018-07-23T10:47:38.345Z,16.92
2018-07-23T10:48:38.310Z,16.99
2018-07-23T10:49:38.300Z,17.08
2018-07-23T10:50:38.271Z,17.11
2018-07-23T10:51:38.246Z,16.98
2018-07-23T10:52:38.227Z,16.90
2018-07-23T10:53:38.201Z,17.04
2018-07-23T10:54:38.154Z,17.03
2018-07-23T10:55:38.156Z,16.99
2018-07-23T10:56:38.117Z,16.98
2018-07-23T10:57:38.110Z,17.15
2018-07-23T10:58:38.091Z,17.26
2018-07-23T10:59:38.067Z,17.38
2018-07-23T11:00:38.047Z,17.38
2018-07-23T11:01:38.018Z,17.55
2018-07-23T11:02:38.009Z,17.74
2018-07-23T11:03:37.977Z,17.91
2018-07-23T11:04:37.951Z,18.00
2018-07-23T11:05:37.933Z,18.13
2018-07-23T11:06:37.913Z,18.43
2018-07-23T11:07:37.885Z,18.57
2018-07-23T11:08:37.863Z,18.68
2018-07-23T11:09:37.846Z,18.67
2018-07-23T11:10:37.818Z,18.72
2018-07-23T11:11:37.807Z,18.70
2018-07-23T11:12:37.795Z,18.77
2018-07-23T11:13:37.755Z,18.74
2018-07-23T11:14:37.740Z,18.57
2018-07-23T11:15:37.708Z,18.61
2018-07-23T11:16:37.691Z,18.72
2018-07-23T11:17:37.655Z,18.70
2018-07-23T11:18:38.172Z,18.86
2018-07-23T11:19:37.630Z,19.06
2018-07-23T11:20:37.608Z,19.39
2018-07-23T11:21:37.564Z,19.43
2018-07-23T11:22:37.566Z,19.28
2018-07-23T11:23:37.539Z,19.13
2018-07-23T11:24:37.555Z,19.31
2018-07-23T11:25:39.673Z,19.21
2018-07-23T11:26:37.488Z,19.43
2018-07-23T11:27:37.467Z,19.61
2018-07-23T11:28:37.442Z,19.78
2018-07-23T11:29:37.456Z,19.80
2018-07-23T11:30:37.401Z,19.90
2018-07-23T11:31:37.374Z,19.98
2018-07-23T11:32:37.356Z,19.91
2018-07-23T11:33:37.337Z,19.88
2018-07-23T11:34:37.320Z,19.83
2018-07-23T11:35:37.294Z,19.72
2018-07-23T11:36:37.324Z,19.70
2018-07-23T11:37:37.261Z,19.95
2018-07-23T11:38:37.232Z,20.08
2018-07-23T11:39:37.198Z,20.09
2018-07-23T11:40:37.202Z,20.12
2018-07-23T11:41:37.249Z,20.24
2018-07-23T11:42:37.184Z,20.24
2018-07-23T11:43:37.126Z,20.46
2018-07-23T11:44:37.108Z,20.54
2018-07-23T11:45:37.100Z,20.47
2018-07-23T11:46:37.060Z,20.43
2018-07-23T11:47:37.060Z,20.64
2018-07-23T11:48:37.046Z,20.53
2018-07-23T11:49:37.028Z,20.27
2018-07-23T11:50:37.004Z,20.06
2018-07-23T11:51:36.983Z,19.86
2018-07-23T11:52:36.966Z,19.61
2018-07-23T11:53:36.976Z,19.50
2018-07-23T11:54:36.914Z,19.46
2018-07-23T11:55:36.910Z,19.72
2018-07-23T11:56:36.896Z,20.12
2018-07-23T11:57:36.864Z,20.21
2018-07-23T11:58:36.844Z,20.46
2018-07-23T11:59:36.816Z,20.59
2018-07-23T12:00:36.792Z,20.69
2018-07-23T12:01:36.790Z,20.91
2018-07-23T12:02:36.770Z,20.79
2018-07-23T12:03:36.729Z,20.84
2018-07-23T12:04:36.864Z,20.76
2018-07-23T12:05:36.711Z,20.84
2018-07-23T12:06:36.692Z,20.91
2018-07-23T12:07:36.678Z,21.11
2018-07-23T12:08:36.656Z,20.87
2018-07-23T12:09:36.644Z,20.81
2018-07-23T12:10:36.623Z,20.87
2018-07-23T12:11:36.604Z,20.81
2018-07-23T12:12:36.583Z,21.06
2018-07-23T12:13:36.571Z,21.35
2018-07-23T12:14:36.553Z,21.60
2018-07-23T12:15:36.530Z,21.64
2018-07-23T12:16:36.518Z,21.95
2018-07-23T12:17:36.515Z,22.29
2018-07-23T12:18:36.478Z,21.99
2018-07-23T12:19:36.462Z,21.21
2018-07-23T12:20:36.450Z,20.96
2018-07-23T12:21:36.424Z,20.86
2018-07-23T12:22:36.407Z,20.84
2018-07-23T12:23:36.374Z,20.91
2018-07-23T12:24:36.380Z,20.90
2018-07-23T12:25:36.363Z,20.93
2018-07-23T12:26:36.397Z,20.90
2018-07-23T12:27:36.326Z,20.83
2018-07-23T12:28:36.309Z,20.49
2018-07-23T12:29:36.292Z,20.23
2018-07-23T12:30:36.265Z,20.00
2018-07-23T12:31:36.252Z,20.00
2018-07-23T12:32:36.244Z,20.16
2018-07-23T12:33:36.223Z,20.27
2018-07-23T12:34:36.201Z,20.56
2018-07-23T12:35:36.178Z,20.81
2018-07-23T12:36:36.164Z,20.86
2018-07-23T12:37:36.147Z,20.96
2018-07-23T12:38:36.106Z,21.13
2018-07-23T12:39:36.145Z,21.36
2018-07-23T12:40:36.089Z,21.38
2018-07-23T12:41:36.074Z,21.13
2018-07-23T12:42:36.037Z,21.24
2018-07-23T12:43:36.030Z,21.48
2018-07-23T12:44:36.020Z,21.81
2018-07-23T12:45:36.006Z,21.95
2018-07-23T12:46:35.991Z,21.98
2018-07-23T12:47:35.970Z,21.95
2018-07-23T12:48:35.939Z,21.98
2018-07-23T12:49:35.939Z,21.75
2018-07-23T12:50:35.916Z,21.95
2018-07-23T12:51:35.903Z,21.97
2018-07-23T12:52:35.908Z,22.01
2018-07-23T12:53:35.877Z,22.29
2018-07-23T12:54:35.854Z,22.16
2018-07-23T12:55:35.838Z,21.88
2018-07-23T12:56:35.819Z,22.09